Time;durP1;ratioP1;P1;durP2;ratioP2;P2;SDS_P1;SDS_P2;PMS_P1;PMS_P2;Temp;Humidity;BMP_temperature;BMP_pressure;BME280_temperature;BME280_humidity;BME280_pressure;Samples;Min_cycle;Max_cycle;Signal;HPM_P1;HPM_P2
2022/08/24 00:02:16;;;;;;;10.70;6.80;;;;;;;22.25;100.00;100580.47;657108;1277;24285;-87
2022/08/24 00:17:20;;;;;;;13.00;7.10;;;;;;;22.31;100.00;100575.63;655924;1277;25628;-86
2022/08/24 00:32:23;;;;;;;10.60;6.30;;;;;;;22.35;100.00;100573.52;655590;1277;1213925;-89
2022/08/24 00:47:33;;;;;;;10.10;6.40;;;;;;;22.30;100.00;100580.95;655646;1277;23600;-86
2022/08/24 01:02:42;;;;;;;11.10;7.00;;;;;;;22.30;100.00;100581.70;656051;1277;22814;-86
2022/08/24 01:33:09;;;;;;;17.10;8.40;;;;;;;22.02;100.00;100590.36;655184;1278;24071;-84
2022/08/24 01:48:14;;;;;;;11.00;6.60;;;;;;;21.88;100.00;100591.20;656451;1278;22574;-86
2022/08/24 02:03:26;;;;;;;11.60;6.30;;;;;;;21.83;100.00;100593.86;655466;1278;22629;-86
2022/08/24 02:18:35;;;;;;;11.50;7.10;;;;;;;21.62;100.00;100591.80;655204;1277;25386;-84
2022/08/24 02:33:41;;;;;;;9.90;6.40;;;;;;;21.59;100.00;100587.18;656067;1277;26941;-86
2022/08/24 02:48:45;;;;;;;10.90;6.20;;;;;;;21.64;100.00;100598.50;656442;1278;23640;-85
2022/08/24 03:04:00;;;;;;;8.30;6.00;;;;;;;21.73;100.00;100605.05;655515;1277;22547;-86
2022/08/24 03:19:04;;;;;;;8.00;6.70;;;;;;;21.73;100.00;100619.46;657844;1277;22545;-87
2022/08/24 03:34:12;;;;;;;11.80;7.80;;;;;;;21.68;100.00;100629.97;656879;1277;22694;-86
2022/08/24 03:49:17;;;;;;;12.10;8.00;;;;;;;21.62;100.00;100647.02;655784;1278;25333;-91
2022/08/24 04:04:21;;;;;;;13.70;8.00;;;;;;;21.69;100.00;100662.48;660170;1278;22573;-85
2022/08/24 04:19:25;;;;;;;10.70;8.70;;;;;;;21.75;100.00;100671.27;663532;1279;23974;-83
2022/08/24 04:34:30;;;;;;;11.60;7.00;;;;;;;21.80;100.00;100681.63;662672;1278;22548;-84
2022/08/24 04:49:36;;;;;;;28.40;14.70;;;;;;;21.83;100.00;100693.59;659958;1277;22570;-87
2022/08/24 05:04:39;;;;;;;17.70;11.40;;;;;;;22.02;100.00;100711.17;663744;1278;24358;-84
2022/08/24 05:19:43;;;;;;;15.00;10.00;;;;;;;22.31;100.00;100722.07;658333;1278;23030;-84
2022/08/24 05:34:46;;;;;;;14.50;10.20;;;;;;;22.63;100.00;100733.23;659184;1277;25324;-84
2022/08/24 05:49:52;;;;;;;13.20;7.40;;;;;;;22.80;100.00;100738.80;657655;1277;22534;-85
2022/08/24 06:04:56;;;;;;;9.50;7.30;;;;;;;23.00;100.00;100747.98;659354;1279;24251;-84
2022/08/24 06:20:00;;;;;;;12.20;7.10;;;;;;;23.34;100.00;100736.62;657430;1277;22569;-85
2022/08/24 06:35:06;;;;;;;7.20;5.70;;;;;;;24.04;100.00;100733.63;659810;1277;24369;-85
2022/08/24 06:50:13;;;;;;;11.80;5.30;;;;;;;24.35;100.00;100722.41;658556;1279;22722;-86
2022/08/24 07:05:17;;;;;;;11.80;4.90;;;;;;;25.08;100.00;100732.86;659167;1277;22640;-85
2022/08/24 07:20:41;;;;;;;7.50;4.20;;;;;;;26.09;100.00;100732.41;661453;1277;22562;-83
2022/08/24 07:35:53;;;;;;;9.90;4.20;;;;;;;26.93;100.00;100746.04;660354;1277;22574;-83
2022/08/24 07:51:10;;;;;;;8.40;3.70;;;;;;;27.86;100.00;100757.52;657152;1277;24508;-84
2022/08/24 08:06:16;;;;;;;8.20;3.10;;;;;;;28.59;100.00;100757.71;657067;1277;23682;-84
2022/08/24 08:36:44;;;;;;;12.20;3.20;;;;;;;29.76;100.00;100754.57;658727;1277;22577;-82
2022/08/24 08:52:25;;;;;;;12.00;3.20;;;;;;;30.40;100.00;100770.43;658198;1277;24270;-81
2022/08/24 09:07:32;;;;;;;6.80;3.40;;;;;;;30.97;100.00;100772.10;657347;1277;23522;-81
2022/08/24 09:22:42;;;;;;;13.50;3.90;;;;;;;31.20;97.96;100771.02;656729;1278;22557;-83
2022/08/24 09:37:55;;;;;;;7.50;3.30;;;;;;;31.65;96.70;100769.10;658896;1277;25264;-82
2022/08/24 09:53:21;;;;;;;8.70;3.30;;;;;;;32.09;94.87;100765.13;658070;1277;25621;-82
2022/08/24 10:08:37;;;;;;;10.40;3.60;;;;;;;32.75;91.25;100766.52;657755;1277;25194;-83
2022/08/24 10:24:07;;;;;;;14.50;4.30;;;;;;;33.16;86.94;100770.77;659326;1277;25267;-82
2022/08/24 10:39:54;;;;;;;10.60;4.00;;;;;;;32.93;84.27;100770.73;659450;1277;23277;-81
2022/08/24 10:55:15;;;;;;;11.40;3.40;;;;;;;32.31;86.51;100771.52;660282;1277;22842;-82
2022/08/24 11:10:27;;;;;;;9.40;3.20;;;;;;;33.26;85.62;100772.05;662438;1277;22580;-80
2022/08/24 11:25:32;;;;;;;11.10;3.30;;;;;;;34.47;80.51;100775.52;657352;1277;26488;-82
2022/08/24 11:40:40;;;;;;;12.80;4.10;;;;;;;35.03;79.06;100774.54;659319;1278;24450;-83
2022/08/24 11:56:17;;;;;;;11.00;3.40;;;;;;;35.68;76.51;100773.23;657492;1277;22752;-82
2022/08/24 12:11:43;;;;;;;15.70;8.40;;;;;;;36.16;74.14;100771.17;656697;1278;22627;-81
2022/08/24 12:26:56;;;;;;;12.60;3.70;;;;;;;36.24;72.11;100773.19;659188;1277;24311;-82
2022/08/24 12:42:11;;;;;;;9.80;3.30;;;;;;;36.82;70.35;100769.95;654871;1277;1403090;-81
2022/08/24 12:57:21;;;;;;;11.60;3.50;;;;;;;36.85;67.80;100765.30;656745;1277;22849;-81
2022/08/24 13:12:37;;;;;;;20.10;4.20;;;;;;;35.31;67.21;100757.14;657227;1277;24315;-81
2022/08/24 13:27:42;;;;;;;16.10;4.60;;;;;;;34.13;70.10;100766.27;657853;1277;22553;-81
2022/08/24 13:43:09;;;;;;;15.30;3.60;;;;;;;33.68;71.48;100769.20;658508;1277;22543;-80
2022/08/24 13:58:38;;;;;;;14.80;3.60;;;;;;;33.94;71.46;100770.13;662516;1277;24345;-80
2022/08/24 14:13:56;;;;;;;17.20;4.90;;;;;;;34.10;72.32;100761.34;657634;1277;24226;-81
2022/08/24 14:29:17;;;;;;;13.00;4.90;;;;;;;34.23;71.55;100760.09;658191;1277;25405;-81
2022/08/24 14:44:34;;;;;;;15.80;4.10;;;;;;;34.26;72.23;100757.03;659304;1277;22541;-81
2022/08/24 15:00:02;;;;;;;9.80;4.20;;;;;;;35.89;70.71;100752.02;660602;1278;22567;-81
2022/08/24 15:15:29;;;;;;;15.50;3.80;;;;;;;38.20;65.70;100748.25;663353;1277;22578;-81
2022/08/24 15:30:38;;;;;;;11.30;4.20;;;;;;;40.84;62.09;100746.71;660106;1277;22639;-81
2022/08/24 15:45:50;;;;;;;15.00;3.80;;;;;;;42.41;57.32;100744.01;658584;1277;26610;-80
2022/08/24 16:16:44;;;;;;;9.90;3.10;;;;;;;34.93;68.11;100739.20;657985;1277;25358;-81
2022/08/24 16:31:50;;;;;;;;;;;;;;;33.69;71.58;100758.34;656988;1277;22694;-81
2022/08/24 16:46:54;;;;;;;;;;;;;;;32.62;75.28;100768.13;657777;1277;25327;-81
2022/08/24 17:01:59;;;;;;;10.30;4.00;;;;;;;31.45;78.39;100781.86;657899;1277;22545;-80
2022/08/24 17:17:10;;;;;;;10.30;3.90;;;;;;;30.52;81.34;100801.38;657902;1279;22609;-80
2022/08/24 17:32:15;;;;;;;8.40;3.60;;;;;;;29.71;84.58;100822.51;657919;1277;23680;-80
2022/08/24 17:47:18;;;;;;;14.80;4.80;;;;;;;28.86;87.56;100828.86;658617;1277;25342;-80
2022/08/24 18:02:21;;;;;;;41.60;25.60;;;;;;;28.27;90.51;100839.56;658216;1277;22544;-81
2022/08/24 18:17:39;;;;;;;148.00;60.10;;;;;;;27.87;92.57;100845.42;659730;1277;22711;-80
2022/08/24 18:32:44;;;;;;;31.50;13.30;;;;;;;27.47;94.68;100850.50;659358;1277;24407;-78
2022/08/24 18:47:48;;;;;;;35.90;13.10;;;;;;;27.08;96.27;100861.90;657483;1277;22547;-80
2022/08/24 19:03:01;;;;;;;19.10;9.70;;;;;;;26.72;97.64;100871.09;659623;1277;37151;-80
2022/08/24 19:18:05;;;;;;;18.80;9.00;;;;;;;26.43;99.44;100885.80;658384;1277;25238;-79
2022/08/24 19:33:19;;;;;;;12.40;6.40;;;;;;;26.25;99.92;100888.73;665216;1277;22555;-79
2022/08/24 19:48:23;;;;;;;12.30;5.70;;;;;;;26.00;100.00;100889.20;661136;1277;25338;-79
2022/08/24 20:03:27;;;;;;;12.10;4.90;;;;;;;25.72;100.00;100894.88;658028;1277;25262;-79
2022/08/24 20:18:32;;;;;;;17.00;6.00;;;;;;;25.42;100.00;100901.63;658047;1277;22701;-80
2022/08/24 20:33:36;;;;;;;12.80;5.40;;;;;;;25.18;100.00;100901.55;657997;1277;25289;-80
2022/08/24 20:48:40;;;;;;;9.00;5.40;;;;;;;24.96;100.00;100901.11;657476;1277;23471;-80
2022/08/24 21:03:45;;;;;;;12.60;5.00;;;;;;;24.80;100.00;100898.27;657018;1278;23656;-80
2022/08/24 21:18:49;;;;;;;8.90;5.20;;;;;;;24.68;100.00;100901.67;657518;1277;24477;-81
2022/08/24 21:49:15;;;;;;;11.10;5.20;;;;;;;24.47;100.00;100917.95;656503;1277;25274;-81
2022/08/24 22:04:18;;;;;;;13.20;5.80;;;;;;;24.32;100.00;100937.52;655879;1280;23529;-80
2022/08/24 22:19:22;;;;;;;11.80;6.10;;;;;;;24.29;100.00;100939.12;657430;1277;22717;-80
2022/08/24 22:34:25;;;;;;;9.40;6.10;;;;;;;24.25;100.00;100930.89;657643;1277;24424;-80
2022/08/24 22:49:34;;;;;;;11.90;6.60;;;;;;;23.87;100.00;100973.55;657477;1280;24278;-80
2022/08/24 23:04:42;;;;;;;14.90;7.70;;;;;;;23.47;100.00;101013.72;655643;1277;23167;-81
2022/08/24 23:20:00;;;;;;;17.10;8.60;;;;;;;23.35;100.00;101006.66;657496;1277;25501;-83
2022/08/24 23:35:05;;;;;;;14.60;8.10;;;;;;;22.92;100.00;100989.52;657235;1278;22680;-81
2022/08/24 23:50:09;;;;;;;14.50;7.30;;;;;;;23.14;100.00;100962.66;656091;1279;23688;-84
